Time;durP1;ratioP1;P1;durP2;ratioP2;P2;SDS_P1;SDS_P2;PMS_P1;PMS_P2;Temp;Humidity;BMP_temperature;BMP_pressure;BME280_temperature;BME280_humidity;BME280_pressure;Samples;Min_cycle;Max_cycle;Signal;HPM_P1;HPM_P2
2023/02/21 02:17:56;;;;;;;62.88;31.02;;;8.30;99.90;;;;;;12351519;28;20077;-83
2023/02/21 02:24:23;;;;;;;55.90;29.80;;;8.30;99.90;;;;;;12377988;28;20081;-83
2023/02/21 02:30:49;;;;;;;61.80;31.15;;;8.30;99.90;;;;;;12360150;28;20070;-82
2023/02/21 02:37:06;;;;;;;65.78;30.92;;;8.30;99.90;;;;;;12360771;28;20050;-83
2023/02/21 02:43:58;;;;;;;65.50;30.38;;;8.30;99.90;;;;;;12373586;28;20050;-82
2023/02/21 02:50:02;;;;;;;59.65;30.73;;;8.30;99.90;;;;;;12319694;28;20053;-82
2023/02/21 02:56:08;;;;;;;64.57;31.13;;;8.30;99.90;;;;;;12338957;28;20047;-82
2023/02/21 03:02:35;;;;;;;59.08;30.02;;;8.30;99.90;;;;;;12356330;28;20133;-82
2023/02/21 03:09:18;;;;;;;62.50;30.27;;;8.30;99.90;;;;;;12364780;28;20457;-83
2023/02/21 03:15:36;;;;;;;60.60;31.33;;;8.30;99.90;;;;;;12356461;28;20141;-81
2023/02/21 03:21:48;;;;;;;57.35;28.58;;;8.40;99.90;;;;;;12400977;28;20115;-82
2023/02/21 03:27:53;;;;;;;56.72;28.13;;;8.40;99.90;;;;;;12396425;28;20104;-82
2023/02/21 03:33:56;;;;;;;66.93;31.85;;;8.40;99.90;;;;;;12391205;28;20042;-82
2023/02/21 03:39:59;;;;;;;60.78;28.80;;;8.40;99.90;;;;;;12405821;28;20153;-83
2023/02/21 03:46:00;;;;;;;54.95;28.80;;;8.40;99.90;;;;;;12395138;28;20058;-82
2023/02/21 03:52:02;;;;;;;57.38;28.40;;;8.40;99.90;;;;;;12389553;28;20099;-82
2023/02/21 03:58:04;;;;;;;57.60;29.40;;;8.40;99.90;;;;;;12398750;28;20050;-82
2023/02/21 04:04:06;;;;;;;61.60;30.35;;;8.30;99.90;;;;;;12380162;28;20636;-82
2023/02/21 04:10:09;;;;;;;57.88;29.50;;;8.30;99.90;;;;;;12385245;28;20108;-82
2023/02/21 04:16:11;;;;;;;69.28;33.80;;;8.30;99.90;;;;;;12394977;28;20666;-82
2023/02/21 04:22:13;;;;;;;68.45;33.20;;;8.30;99.90;;;;;;12398657;28;20103;-83
2023/02/21 04:28:15;;;;;;;63.25;31.15;;;8.30;99.90;;;;;;12402351;28;20099;-82
2023/02/21 04:34:16;;;;;;;67.13;30.90;;;8.30;99.90;;;;;;12408579;28;20103;-82
2023/02/21 04:40:18;;;;;;;63.67;30.60;;;8.30;99.90;;;;;;12397066;28;20043;-82
2023/02/21 04:46:20;;;;;;;64.90;32.33;;;8.20;99.90;;;;;;12395520;28;20546;-82
2023/02/21 04:52:24;;;;;;;64.97;31.08;;;8.30;99.90;;;;;;12383246;28;20157;-82
2023/02/21 04:58:26;;;;;;;66.10;31.92;;;8.20;99.90;;;;;;12390607;28;20062;-82
2023/02/21 05:04:37;;;;;;;70.88;30.17;;;8.20;99.90;;;;;;12393505;28;20049;-82
2023/02/21 05:10:39;;;;;;;62.25;31.05;;;8.20;99.90;;;;;;12379043;28;20046;-82
2023/02/21 05:16:46;;;;;;;68.38;32.42;;;8.20;99.90;;;;;;12377267;28;20054;-82
2023/02/21 05:22:48;;;;;;;67.72;31.30;;;8.30;99.90;;;;;;12384576;28;20065;-82
2023/02/21 05:28:51;;;;;;;64.43;31.33;;;8.30;99.90;;;;;;12401129;28;20099;-82
2023/02/21 05:34:53;;;;;;;65.20;32.00;;;8.30;99.90;;;;;;12386905;28;20065;-82
2023/02/21 05:40:57;;;;;;;67.78;31.27;;;8.30;99.90;;;;;;12387952;28;20078;-82
2023/02/21 05:47:01;;;;;;;65.97;31.55;;;8.30;99.90;;;;;;12383874;28;20498;-82
2023/02/21 05:53:02;;;;;;;56.13;28.33;;;8.30;99.90;;;;;;12393241;28;20455;-83
2023/02/21 05:59:05;;;;;;;60.92;30.20;;;8.30;99.90;;;;;;12340890;28;20108;-82
2023/02/21 06:05:07;;;;;;;65.90;29.90;;;8.20;99.90;;;;;;12362350;28;20086;-82
2023/02/21 06:11:09;;;;;;;67.38;31.27;;;8.20;99.90;;;;;;12359892;28;20051;-82
2023/02/21 06:17:11;;;;;;;63.88;31.38;;;8.20;99.90;;;;;;12365453;28;20065;-82
2023/02/21 06:23:12;;;;;;;67.13;32.35;;;8.20;99.90;;;;;;12351732;28;20058;-83
2023/02/21 06:29:14;;;;;;;67.18;31.55;;;8.20;99.90;;;;;;12371199;28;20105;-82
2023/02/21 06:35:16;;;;;;;68.32;30.55;;;8.20;99.90;;;;;;12360047;28;20117;-82
2023/02/21 06:41:23;;;;;;;61.10;28.60;;;8.10;99.90;;;;;;12364429;28;20058;-81
2023/02/21 06:47:25;;;;;;;64.30;28.55;;;8.10;99.90;;;;;;12341514;28;20050;-81
2023/02/21 06:53:27;;;;;;;74.85;29.45;;;8.00;99.90;;;;;;12361105;28;20502;-83
2023/02/21 06:59:29;;;;;;;70.68;31.10;;;8.00;99.90;;;;;;12366805;28;20510;-82
2023/02/21 07:05:35;;;;;;;75.30;30.73;;;8.10;99.90;;;;;;12351150;28;20396;-82
2023/02/21 07:11:37;;;;;;;74.32;30.20;;;8.00;99.90;;;;;;12359554;28;20055;-82
2023/02/21 07:17:40;;;;;;;69.78;31.05;;;8.00;99.90;;;;;;12351111;28;20088;-82
2023/02/21 07:23:43;;;;;;;77.53;30.48;;;8.10;99.90;;;;;;12354224;28;20049;-82
2023/02/21 07:29:46;;;;;;;62.58;27.10;;;8.00;99.90;;;;;;12365699;28;20043;-82
2023/02/21 07:35:48;;;;;;;73.32;30.42;;;8.00;99.90;;;;;;12362787;28;20039;-81
2023/02/21 07:41:52;;;;;;;65.80;28.50;;;8.00;99.90;;;;;;12353865;28;20129;-82
2023/02/21 07:47:54;;;;;;;69.55;28.35;;;8.00;99.90;;;;;;12368644;28;20510;-82
2023/02/21 07:53:56;;;;;;;66.28;28.17;;;8.00;99.90;;;;;;12366636;28;20543;-82
2023/02/21 07:59:58;;;;;;;61.80;25.92;;;8.00;99.90;;;;;;12413412;28;20046;-82
2023/02/21 08:06:00;;;;;;;56.33;25.15;;;8.10;99.90;;;;;;12385939;28;20079;-82
2023/02/21 08:12:02;;;;;;;60.97;26.17;;;8.10;99.90;;;;;;12389215;28;20050;-82
2023/02/21 08:18:04;;;;;;;50.60;21.48;;;8.00;99.90;;;;;;12398835;28;20450;-81
2023/02/21 08:24:06;;;;;;;49.78;22.42;;;8.10;99.90;;;;;;12400783;28;20038;-81
2023/02/21 08:30:13;;;;;;;50.97;22.88;;;8.10;99.90;;;;;;12392341;28;20053;-82
2023/02/21 08:36:15;;;;;;;49.13;22.02;;;8.10;99.90;;;;;;12397037;28;20054;-82
2023/02/21 08:42:20;;;;;;;44.42;21.45;;;8.10;99.90;;;;;;12396600;28;20107;-82
2023/02/21 08:48:22;;;;;;;49.72;22.67;;;8.10;99.90;;;;;;12376913;28;20062;-82
2023/02/21 08:54:24;;;;;;;47.38;22.45;;;8.20;99.90;;;;;;12381042;28;20510;-82
2023/02/21 09:00:29;;;;;;;51.00;23.50;;;8.10;99.90;;;;;;12380767;28;20046;-82
2023/02/21 09:06:31;;;;;;;50.65;22.30;;;8.20;99.90;;;;;;12393035;28;20082;-82
2023/02/21 09:12:35;;;;;;;50.00;22.13;;;8.30;99.90;;;;;;12394448;28;20137;-83
2023/02/21 09:18:37;;;;;;;47.17;22.08;;;8.30;99.90;;;;;;12412819;28;20416;-82
2023/02/21 09:24:40;;;;;;;45.38;22.15;;;8.30;99.90;;;;;;12408360;28;20180;-82
2023/02/21 09:30:42;;;;;;;45.10;20.25;;;8.30;99.90;;;;;;12434312;28;20042;-82
2023/02/21 09:36:46;;;;;;;48.30;21.75;;;8.40;99.90;;;;;;12427934;28;20034;-82
2023/02/21 09:42:53;;;;;;;43.97;19.83;;;8.40;99.90;;;;;;12436247;28;20034;-83
2023/02/21 09:48:55;;;;;;;46.80;20.15;;;8.40;99.90;;;;;;12456003;28;20046;-82
2023/02/21 09:55:01;;;;;;;43.83;21.30;;;8.50;99.90;;;;;;12450739;28;20485;-82
2023/02/21 10:01:16;;;;;;;36.33;17.52;;;8.60;99.90;;;;;;12398934;28;20037;-82
2023/02/21 10:07:30;;;;;;;38.25;18.65;;;8.60;99.90;;;;;;12389025;28;20031;-82
2023/02/21 10:14:02;;;;;;;37.63;19.10;;;8.60;99.90;;;;;;12397207;28;20561;-82
2023/02/21 10:20:15;;;;;;;36.92;17.52;;;8.70;99.90;;;;;;12407045;28;20100;-82
2023/02/21 10:26:23;;;;;;;36.75;17.75;;;8.80;99.90;;;;;;12382686;28;20058;-82
2023/02/21 10:32:25;;;;;;;35.92;17.52;;;8.80;99.90;;;;;;12412078;28;20133;-82
2023/02/21 10:38:27;;;;;;;34.63;16.58;;;8.80;99.90;;;;;;12402973;28;20069;-82
2023/02/21 10:44:34;;;;;;;36.13;17.25;;;8.80;99.90;;;;;;12410330;28;20203;-81
2023/02/21 10:50:37;;;;;;;31.42;17.02;;;8.80;99.90;;;;;;12389742;28;20059;-82
2023/02/21 10:56:40;;;;;;;31.48;17.00;;;8.70;99.90;;;;;;12406002;28;20562;-82
2023/02/21 11:02:43;;;;;;;33.75;16.58;;;8.80;99.90;;;;;;12384242;28;20050;-81
2023/02/21 11:08:45;;;;;;;32.10;17.48;;;8.90;99.90;;;;;;12400419;28;20057;-81
2023/02/21 11:14:50;;;;;;;33.30;17.95;;;8.90;99.90;;;;;;12398143;28;20382;-81
2023/02/21 11:20:52;;;;;;;34.05;17.85;;;9.00;99.90;;;;;;12400367;28;20503;-82
2023/02/21 11:26:54;;;;;;;35.13;17.08;;;9.00;99.90;;;;;;12387093;28;20482;-82
2023/02/21 11:32:59;;;;;;;38.20;18.63;;;9.00;99.90;;;;;;12398831;28;20111;-82
2023/02/21 11:39:26;;;;;;;39.08;19.77;;;9.00;99.90;;;;;;12409046;28;20045;-82
2023/02/21 11:45:29;;;;;;;35.97;19.60;;;8.90;99.90;;;;;;12395054;28;21029;-81
2023/02/21 11:51:54;;;;;;;39.20;18.70;;;8.90;99.90;;;;;;12395188;28;20073;-82
2023/02/21 11:58:30;;;;;;;34.88;18.38;;;8.90;99.90;;;;;;12403378;28;20430;-82
2023/02/21 12:04:43;;;;;;;38.00;20.23;;;9.00;99.90;;;;;;12375198;28;20562;-82
2023/02/21 12:10:48;;;;;;;41.15;19.55;;;9.00;99.90;;;;;;12398747;28;20119;-82
2023/02/21 12:17:17;;;;;;;40.38;20.63;;;9.00;99.90;;;;;;12386985;28;20046;-82
2023/02/21 12:23:31;;;;;;;38.53;20.38;;;9.10;99.90;;;;;;12378498;28;20054;-82
2023/02/21 12:29:57;;;;;;;41.03;20.60;;;9.20;99.90;;;;;;12391219;28;20080;-81
2023/02/21 12:36:11;;;;;;;37.83;20.70;;;9.20;99.90;;;;;;12400739;28;20072;-82
2023/02/21 12:42:32;;;;;;;44.87;20.83;;;9.20;99.90;;;;;;12387192;28;20064;-82
2023/02/21 12:48:37;;;;;;;45.22;21.02;;;9.20;99.90;;;;;;12405437;28;20045;-82
2023/02/21 12:54:41;;;;;;;;;;;9.10;99.90;;;;;;12351103;28;20184;-81
2023/02/21 13:00:50;;;;;;;35.47;18.52;;;9.00;99.90;;;;;;12333742;28;19976;-82
2023/02/21 13:07:17;;;;;;;38.85;20.08;;;9.00;99.90;;;;;;12369519;28;20051;-82
2023/02/21 13:13:25;;;;;;;43.33;20.92;;;9.10;99.90;;;;;;12350928;28;20054;-82
2023/02/21 13:19:38;;;;;;;38.67;19.23;;;9.00;99.90;;;;;;12363690;28;20417;-83
2023/02/21 13:25:59;;;;;;;41.15;19.00;;;9.10;99.90;;;;;;12358088;28;20177;-82
2023/02/21 13:32:16;;;;;;;41.10;21.05;;;9.10;99.90;;;;;;12372373;28;20050;-82
2023/02/21 13:38:19;;;;;;;38.03;19.42;;;9.00;99.90;;;;;;12350212;28;20086;-82
2023/02/21 13:44:29;;;;;;;31.67;17.25;;;9.00;99.90;;;;;;12381026;28;20129;-81
2023/02/21 13:50:35;;;;;;;35.75;17.35;;;8.90;99.90;;;;;;12387185;28;20532;-82
2023/02/21 13:56:48;;;;;;;33.13;16.88;;;9.00;99.90;;;;;;12387828;28;20104;-82
2023/02/21 14:03:16;;;;;;;33.95;16.73;;;9.00;99.90;;;;;;12374606;28;20483;-82
2023/02/21 14:09:19;;;;;;;32.58;16.33;;;8.90;99.90;;;;;;12388863;28;20054;-82
2023/02/21 14:15:21;;;;;;;32.10;16.92;;;8.90;99.90;;;;;;12394509;28;20050;-82
2023/02/21 14:21:29;;;;;;;46.83;22.23;;;8.90;99.90;;;;;;12406516;28;20137;-82
2023/02/21 14:27:33;;;;;;;49.05;21.92;;;8.80;99.90;;;;;;12429348;28;20394;-82
2023/02/21 14:33:35;;;;;;;51.08;21.15;;;8.80;99.90;;;;;;12384995;28;20062;-82
2023/02/21 14:39:41;;;;;;;52.92;22.17;;;8.70;99.90;;;;;;12374530;28;20192;-81
2023/02/21 14:46:06;;;;;;;50.25;19.75;;;8.50;99.90;;;;;;12358864;28;20047;-81
2023/02/21 14:52:27;;;;;;;;;;;8.50;99.90;;;;;;12378912;28;20046;-82
2023/02/21 14:58:41;;;;;;;47.65;19.88;;;8.40;99.90;;;;;;12380282;28;19972;-82
2023/02/21 15:05:21;;;;;;;46.72;19.60;;;8.40;99.90;;;;;;12364776;28;20054;-82
2023/02/21 15:11:36;;;;;;;45.05;19.30;;;8.30;99.90;;;;;;12356586;28;20046;-82
2023/02/21 15:17:41;;;;;;;52.25;21.40;;;8.20;99.90;;;;;;12357120;28;20050;-82
2023/02/21 15:24:01;;;;;;;52.05;20.15;;;8.20;99.90;;;;;;12351817;28;20132;-82
2023/02/21 15:30:13;;;;;;;47.72;19.48;;;8.20;99.90;;;;;;12368145;28;20193;-81
2023/02/21 15:36:21;;;;;;;47.38;19.05;;;8.10;99.90;;;;;;12365695;28;20047;-81
2023/02/21 15:42:27;;;;;;;42.75;18.08;;;8.10;99.90;;;;;;12357658;28;20741;-82
2023/02/21 15:48:30;;;;;;;45.72;19.05;;;8.10;99.90;;;;;;12371930;28;20125;-82
2023/02/21 15:54:37;;;;;;;45.28;19.00;;;8.10;99.90;;;;;;12354718;28;20509;-82
2023/02/21 16:00:41;;;;;;;39.58;16.95;;;8.20;99.90;;;;;;12354925;28;20089;-82
2023/02/21 16:06:56;;;;;;;46.95;19.77;;;8.10;99.90;;;;;;12354096;28;20059;-83
2023/02/21 16:13:02;;;;;;;47.15;19.27;;;8.10;99.90;;;;;;12352964;28;20116;-83
2023/02/21 16:19:03;;;;;;;45.33;20.35;;;8.10;99.90;;;;;;12344492;28;20046;-82
2023/02/21 16:25:11;;;;;;;52.42;20.90;;;8.00;99.90;;;;;;12374407;28;20518;-83
2023/02/21 16:31:22;;;;;;;41.22;19.52;;;8.00;99.90;;;;;;12356482;28;20078;-82
2023/02/21 16:37:26;;;;;;;40.15;20.00;;;8.00;99.90;;;;;;12361358;28;20403;-83
2023/02/21 16:43:28;;;;;;;46.15;21.73;;;8.00;99.90;;;;;;12356809;28;20058;-82
2023/02/21 16:49:31;;;;;;;44.42;20.42;;;7.90;99.90;;;;;;12372799;28;20057;-83
2023/02/21 16:55:32;;;;;;;47.03;21.40;;;7.90;99.90;;;;;;12376161;28;20055;-82
2023/02/21 17:01:35;;;;;;;51.50;22.13;;;7.90;99.90;;;;;;12362778;28;20043;-83
2023/02/21 17:07:39;;;;;;;53.97;21.90;;;7.80;99.90;;;;;;12345206;28;20105;-82
2023/02/21 17:13:41;;;;;;;50.00;23.40;;;7.80;99.90;;;;;;12366065;28;20053;-83
2023/02/21 17:19:43;;;;;;;55.65;23.17;;;7.80;99.90;;;;;;12378718;28;20409;-83
2023/02/21 17:25:45;;;;;;;55.17;23.60;;;7.80;99.90;;;;;;12370993;28;20081;-83
2023/02/21 17:31:54;;;;;;;55.38;23.80;;;7.80;99.90;;;;;;12379959;28;20053;-83
2023/02/21 17:38:00;;;;;;;53.28;23.25;;;7.80;99.90;;;;;;12381961;28;20475;-83
2023/02/21 17:44:02;;;;;;;52.22;23.83;;;7.80;99.90;;;;;;12381922;28;20517;-83
2023/02/21 17:50:05;;;;;;;53.35;23.13;;;7.80;99.90;;;;;;12380251;28;20472;-83
2023/02/21 17:56:07;;;;;;;57.42;22.90;;;7.80;99.90;;;;;;12341543;28;20089;-83
2023/02/21 18:02:09;;;;;;;52.53;23.23;;;7.80;99.90;;;;;;12382295;28;20132;-83
2023/02/21 18:08:11;;;;;;;52.28;23.00;;;7.80;99.90;;;;;;12388875;28;20129;-83
2023/02/21 18:14:12;;;;;;;54.70;23.05;;;7.80;99.90;;;;;;12386263;28;20470;-83
2023/02/21 18:20:15;;;;;;;51.05;23.08;;;7.70;99.90;;;;;;12376172;28;20134;-83
2023/02/21 18:26:17;;;;;;;52.28;22.63;;;7.80;99.90;;;;;;12384437;28;20046;-83
2023/02/21 18:32:19;;;;;;;53.47;23.98;;;7.80;99.90;;;;;;12393844;28;20148;-83
2023/02/21 18:38:22;;;;;;;51.60;23.25;;;7.80;99.90;;;;;;12383392;28;20046;-83
2023/02/21 18:44:24;;;;;;;60.08;24.85;;;7.70;99.90;;;;;;12372558;28;20046;-83
2023/02/21 18:50:26;;;;;;;61.45;24.70;;;7.70;99.90;;;;;;12386393;28;20049;-83
2023/02/21 18:56:28;;;;;;;55.67;24.02;;;7.70;99.90;;;;;;12380163;28;20054;-83
2023/02/21 19:02:30;;;;;;;58.53;24.33;;;7.70;99.90;;;;;;12390745;28;20077;-83
2023/02/21 19:08:32;;;;;;;56.90;25.35;;;7.70;99.90;;;;;;12372116;28;20082;-83
2023/02/21 19:14:35;;;;;;;57.10;25.13;;;7.70;99.90;;;;;;12393953;28;20558;-83
2023/02/21 19:20:42;;;;;;;53.70;23.73;;;7.60;99.90;;;;;;12386416;28;20062;-83
2023/02/21 19:26:44;;;;;;;56.45;24.70;;;7.70;99.90;;;;;;12384055;28;20405;-83
2023/02/21 19:32:46;;;;;;;53.13;23.10;;;7.70;99.90;;;;;;12362681;28;20053;-83
2023/02/21 19:38:48;;;;;;;55.63;23.58;;;7.70;99.90;;;;;;12376785;28;20049;-83
2023/02/21 19:44:50;;;;;;;57.67;23.67;;;7.70;99.90;;;;;;12429648;28;20049;-83
2023/02/21 19:50:52;;;;;;;52.78;23.25;;;7.70;99.90;;;;;;12418772;28;20046;-83
2023/02/21 19:56:54;;;;;;;51.15;22.45;;;7.70;99.90;;;;;;12400024;28;20053;-83
2023/02/21 20:02:55;;;;;;;48.50;22.27;;;7.70;99.90;;;;;;12407751;28;20053;-83
2023/02/21 20:08:57;;;;;;;55.05;23.38;;;7.70;99.90;;;;;;12392314;28;20443;-83
2023/02/21 20:14:59;;;;;;;52.92;22.58;;;7.70;99.90;;;;;;12375557;28;20510;-83
2023/02/21 20:21:01;;;;;;;58.13;24.75;;;7.70;99.90;;;;;;12392791;28;20137;-83
2023/02/21 20:27:03;;;;;;;56.92;24.73;;;7.60;99.90;;;;;;12381358;28;20053;-84
2023/02/21 20:33:05;;;;;;;60.88;24.83;;;7.70;99.90;;;;;;12377297;28;20051;-83
2023/02/21 20:39:18;;;;;;;58.05;24.70;;;7.60;99.90;;;;;;12372199;28;20078;-83
2023/02/21 20:45:22;;;;;;;56.92;24.17;;;7.60;99.90;;;;;;12385577;28;20144;-83
2023/02/21 20:51:33;;;;;;;57.80;25.50;;;7.60;99.90;;;;;;12372718;28;20609;-83
2023/02/21 20:57:36;;;;;;;56.85;24.85;;;7.60;99.90;;;;;;12353173;28;20149;-83
2023/02/21 21:03:39;;;;;;;55.42;22.88;;;7.60;99.90;;;;;;12382056;28;20074;-83
2023/02/21 21:09:41;;;;;;;56.85;23.52;;;7.60;99.90;;;;;;12367340;28;20137;-83
2023/02/21 21:15:43;;;;;;;52.70;23.23;;;7.60;99.90;;;;;;12358584;28;20046;-83
2023/02/21 21:21:45;;;;;;;48.10;20.63;;;7.60;99.90;;;;;;12370244;28;20077;-83
2023/02/21 21:27:47;;;;;;;40.10;17.77;;;7.60;99.90;;;;;;12368207;28;20055;-83
2023/02/21 21:33:49;;;;;;;49.65;22.52;;;7.60;99.90;;;;;;12379208;28;20098;-83
2023/02/21 21:39:55;;;;;;;57.80;23.60;;;7.50;99.90;;;;;;12356427;28;20088;-83
2023/02/21 21:45:57;;;;;;;56.80;23.88;;;7.50;99.90;;;;;;12372220;28;20550;-83
2023/02/21 21:51:59;;;;;;;58.65;23.10;;;7.40;99.90;;;;;;12379236;28;20047;-83
2023/02/21 21:58:09;;;;;;;65.38;24.92;;;7.50;99.90;;;;;;12381589;28;20066;-83
2023/02/21 22:04:12;;;;;;;58.22;23.67;;;7.40;99.90;;;;;;12387326;28;20430;-83
2023/02/21 22:10:14;;;;;;;52.55;22.08;;;7.40;99.90;;;;;;12376775;28;20050;-83
2023/02/21 22:16:16;;;;;;;61.17;23.80;;;7.40;99.90;;;;;;12364199;28;20097;-83
2023/02/21 22:22:18;;;;;;;54.13;21.60;;;7.40;99.90;;;;;;12359062;28;20137;-83
2023/02/21 22:28:20;;;;;;;55.20;21.45;;;7.50;99.90;;;;;;12377473;28;20359;-83
2023/02/21 22:34:22;;;;;;;48.33;19.30;;;7.40;99.90;;;;;;12371894;28;20457;-83
2023/02/21 22:40:26;;;;;;;54.67;20.05;;;7.50;99.90;;;;;;12407639;28;20186;-83
2023/02/21 22:46:41;;;;;;;53.22;19.80;;;7.40;99.90;;;;;;12391436;28;20620;-83
2023/02/21 22:52:43;;;;;;;36.75;14.68;;;7.50;99.90;;;;;;12382990;28;20061;-83
2023/02/21 22:58:45;;;;;;;33.40;13.20;;;7.40;99.90;;;;;;12398528;28;20419;-83
2023/02/21 23:04:47;;;;;;;33.58;11.32;;;7.50;99.90;;;;;;12363419;28;20046;-83
2023/02/21 23:10:50;;;;;;;34.67;13.35;;;7.50;99.90;;;;;;12382669;28;20170;-83
2023/02/21 23:16:56;;;;;;;34.17;14.93;;;7.50;99.90;;;;;;12368459;28;20058;-83
2023/02/21 23:22:59;;;;;;;37.58;13.70;;;7.60;99.90;;;;;;12375801;28;20050;-83
2023/02/21 23:29:01;;;;;;;39.47;14.52;;;7.60;99.90;;;;;;12389575;28;20077;-83
2023/02/21 23:35:03;;;;;;;40.30;14.40;;;7.60;99.90;;;;;;12409385;28;20046;-83
2023/02/21 23:41:08;;;;;;;42.60;16.65;;;7.50;99.90;;;;;;12389807;28;20056;-83
2023/02/21 23:47:12;;;;;;;41.97;15.63;;;7.50;99.90;;;;;;12416671;28;20187;-83
2023/02/21 23:53:21;;;;;;;42.53;15.37;;;7.60;99.90;;;;;;12391458;28;20058;-81
2023/02/21 23:59:25;;;;;;;35.60;15.05;;;7.60;99.90;;;;;;12358855;28;20082;-82
